createdAt,value
2017-12-30T00:01:35.938Z,4.09
2017-12-30T00:04:04.208Z,4.07
2017-12-30T00:06:32.463Z,3.99
2017-12-30T00:09:00.778Z,4.00
2017-12-30T00:11:29.079Z,3.91
2017-12-30T00:13:58.160Z,3.80
2017-12-30T00:16:26.452Z,3.75
2017-12-30T00:18:54.741Z,3.62
2017-12-30T00:21:23.036Z,3.49
2017-12-30T00:23:51.312Z,3.45
2017-12-30T00:26:19.576Z,3.40
2017-12-30T00:28:48.657Z,3.45
2017-12-30T00:31:16.957Z,3.46
2017-12-30T00:33:45.279Z,3.44
2017-12-30T00:36:13.574Z,3.39
2017-12-30T00:38:41.882Z,3.40
2017-12-30T00:41:10.162Z,3.49
2017-12-30T00:43:38.458Z,3.57
2017-12-30T00:46:06.687Z,3.53
2017-12-30T00:48:34.943Z,3.54
2017-12-30T00:51:03.233Z,3.56
2017-12-30T00:53:32.264Z,3.55
2017-12-30T00:56:00.543Z,3.47
2017-12-30T00:58:28.804Z,3.46
2017-12-30T01:00:57.050Z,3.60
2017-12-30T01:03:26.137Z,3.55
2017-12-30T01:05:54.374Z,3.53
2017-12-30T01:08:22.677Z,3.66
2017-12-30T01:10:50.924Z,3.69
2017-12-30T01:13:19.951Z,3.69
2017-12-30T01:15:48.204Z,3.73
2017-12-30T01:18:16.459Z,3.70
2017-12-30T01:20:44.717Z,3.63
2017-12-30T01:23:12.984Z,3.72
2017-12-30T01:25:42.005Z,3.68
2017-12-30T01:28:11.056Z,3.70
2017-12-30T01:30:39.320Z,3.74
2017-12-30T01:33:07.646Z,3.85
2017-12-30T01:35:35.930Z,3.95
2017-12-30T01:38:04.251Z,3.90
2017-12-30T01:40:32.528Z,3.93
2017-12-30T01:43:00.790Z,3.99
2017-12-30T01:45:29.024Z,4.00
2017-12-30T01:47:58.047Z,4.01
2017-12-30T01:50:27.080Z,3.98
2017-12-30T01:52:55.631Z,3.99
2017-12-30T01:55:23.892Z,3.93
2017-12-30T01:57:52.150Z,3.93
2017-12-30T02:00:20.425Z,3.87
2017-12-30T02:02:48.688Z,3.82
2017-12-30T02:05:17.712Z,3.76
2017-12-30T02:07:45.962Z,3.73
2017-12-30T02:10:14.227Z,3.67
2017-12-30T02:12:42.497Z,3.61
2017-12-30T02:15:10.767Z,3.53
2017-12-30T02:17:39.782Z,3.38
2017-12-30T02:20:08.047Z,3.30
2017-12-30T02:22:37.059Z,3.30
2017-12-30T02:25:06.087Z,3.36
2017-12-30T02:27:34.335Z,3.23
2017-12-30T02:30:02.604Z,3.29
2017-12-30T02:32:30.844Z,3.20
2017-12-30T02:34:59.877Z,3.16
2017-12-30T02:37:28.127Z,3.04
2017-12-30T02:39:56.403Z,3.06
2017-12-30T02:42:24.656Z,3.09
2017-12-30T02:44:52.916Z,3.04
2017-12-30T02:47:21.182Z,3.01
2017-12-30T02:49:50.208Z,3.09
2017-12-30T02:52:19.229Z,3.13
2017-12-30T02:54:47.506Z,3.07
2017-12-30T02:57:15.746Z,3.09
2017-12-30T02:59:43.996Z,3.18
2017-12-30T03:02:12.272Z,3.07
2017-12-30T03:04:40.528Z,2.95
2017-12-30T03:07:08.791Z,2.94
2017-12-30T03:09:37.040Z,2.92
2017-12-30T03:12:05.304Z,2.90
2017-12-30T03:14:34.328Z,2.87
2017-12-30T03:17:02.607Z,2.77
2017-12-30T03:19:31.627Z,2.83
2017-12-30T03:21:59.922Z,2.79
2017-12-30T03:24:28.180Z,2.87
2017-12-30T03:26:57.222Z,2.84
2017-12-30T03:29:25.473Z,2.82
2017-12-30T03:31:53.758Z,2.82
2017-12-30T03:34:22.028Z,2.85
2017-12-30T03:36:50.321Z,2.91
2017-12-30T03:39:18.584Z,2.91
2017-12-30T03:41:46.859Z,2.97
2017-12-30T03:44:15.120Z,3.01
2017-12-30T03:46:44.148Z,2.89
2017-12-30T03:49:12.410Z,2.88
2017-12-30T03:51:41.439Z,2.99
2017-12-30T03:54:09.686Z,2.93
2017-12-30T03:56:37.943Z,3.07
2017-12-30T03:59:06.203Z,3.04
2017-12-30T04:01:35.236Z,3.10
2017-12-30T04:04:03.487Z,3.10
2017-12-30T04:06:32.517Z,3.15
2017-12-30T04:09:00.770Z,3.24
2017-12-30T04:11:29.040Z,3.15
2017-12-30T04:13:57.308Z,3.16
2017-12-30T04:16:25.972Z,3.09
2017-12-30T04:18:54.995Z,3.15
2017-12-30T04:21:23.256Z,3.19
2017-12-30T04:23:52.300Z,3.06
2017-12-30T04:26:20.587Z,3.03
2017-12-30T04:28:48.848Z,3.07
2017-12-30T04:31:17.119Z,3.17
2017-12-30T04:33:46.167Z,3.15
2017-12-30T04:36:14.433Z,3.19
2017-12-30T04:38:43.447Z,3.14
2017-12-30T04:41:12.476Z,3.19
2017-12-30T04:43:40.749Z,3.28
2017-12-30T04:46:09.031Z,3.18
2017-12-30T04:48:37.301Z,3.22
2017-12-30T04:51:06.339Z,3.17
2017-12-30T04:53:34.616Z,3.31
2017-12-30T04:56:02.867Z,3.21
2017-12-30T04:58:31.141Z,3.29
2017-12-30T05:00:59.476Z,3.22
2017-12-30T05:03:28.516Z,3.29
2017-12-30T05:05:56.793Z,3.31
2017-12-30T05:08:25.055Z,3.38
2017-12-30T05:10:54.076Z,3.38
2017-12-30T05:13:22.380Z,3.41
2017-12-30T05:15:50.639Z,3.43
2017-12-30T05:18:19.677Z,3.50
2017-12-30T05:20:47.947Z,3.47
2017-12-30T05:23:16.231Z,3.57
2017-12-30T05:25:45.239Z,3.62
2017-12-30T05:28:13.513Z,3.73
2017-12-30T05:30:42.538Z,3.72
2017-12-30T05:33:10.806Z,3.89
2017-12-30T05:35:39.818Z,3.93
2017-12-30T05:38:08.872Z,3.90
2017-12-30T05:40:37.117Z,3.91
2017-12-30T05:43:06.150Z,3.98
2017-12-30T05:45:34.399Z,4.09
2017-12-30T05:48:02.651Z,4.03
2017-12-30T05:50:31.691Z,4.02
2017-12-30T05:52:59.943Z,4.03
2017-12-30T05:55:28.219Z,4.06
2017-12-30T05:57:56.482Z,4.09
2017-12-30T06:00:24.761Z,4.13
2017-12-30T06:02:53.772Z,4.11
2017-12-30T06:05:22.031Z,4.13
2017-12-30T06:07:50.287Z,4.14
2017-12-30T06:10:18.587Z,4.14
2017-12-30T06:12:46.840Z,4.13
2017-12-30T06:15:15.086Z,4.08
2017-12-30T06:17:43.335Z,4.05
2017-12-30T06:20:11.595Z,4.17
2017-12-30T06:22:39.859Z,4.17
2017-12-30T06:25:08.907Z,4.05
2017-12-30T06:27:37.146Z,4.00
2017-12-30T06:30:05.419Z,4.00
2017-12-30T06:32:33.684Z,4.11
2017-12-30T06:35:01.959Z,4.00
2017-12-30T06:37:30.212Z,4.05
2017-12-30T06:39:58.501Z,3.96
2017-12-30T06:42:26.779Z,4.06
2017-12-30T06:44:55.059Z,4.08
2017-12-30T06:47:23.328Z,4.10
2017-12-30T06:49:51.603Z,4.15
2017-12-30T06:52:19.867Z,3.98
2017-12-30T06:54:48.892Z,3.98
2017-12-30T06:57:17.173Z,5.31
2017-12-30T06:59:46.199Z,4.29
2017-12-30T07:02:14.471Z,4.68
2017-12-30T07:04:42.909Z,4.12
2017-12-30T07:07:11.167Z,4.03
2017-12-30T07:09:39.436Z,4.04
2017-12-30T07:12:08.837Z,4.00
2017-12-30T07:14:37.880Z,4.00
2017-12-30T07:17:06.153Z,3.92
2017-12-30T07:19:34.409Z,4.01
2017-12-30T07:22:02.679Z,4.06
2017-12-30T07:24:30.935Z,3.91
2017-12-30T07:26:59.209Z,4.05
2017-12-30T07:29:28.857Z,4.04
2017-12-30T07:31:57.121Z,3.95
2017-12-30T07:34:25.375Z,4.03
2017-12-30T07:36:54.120Z,4.01
2017-12-30T07:39:22.471Z,4.01
2017-12-30T07:41:50.997Z,4.51
2017-12-30T07:44:21.851Z,4.22
2017-12-30T07:46:50.107Z,4.00
2017-12-30T07:49:18.775Z,3.92
2017-12-30T07:51:47.965Z,4.01
2017-12-30T07:54:16.914Z,4.25
2017-12-30T07:56:45.168Z,4.15
2017-12-30T07:59:13.432Z,5.38
2017-12-30T08:01:41.700Z,6.88
2017-12-30T08:04:10.715Z,7.05
2017-12-30T08:06:39.777Z,7.07
2017-12-30T08:09:08.007Z,5.09
2017-12-30T08:11:37.046Z,4.74
2017-12-30T08:14:05.275Z,4.57
2017-12-30T08:16:33.652Z,4.46
2017-12-30T08:19:02.062Z,4.58
2017-12-30T08:21:30.340Z,4.55
2017-12-30T08:23:58.595Z,4.48
2017-12-30T08:26:26.954Z,4.55
2017-12-30T08:28:56.109Z,4.53
2017-12-30T08:31:24.396Z,4.48
2017-12-30T08:33:52.648Z,4.53
2017-12-30T08:36:22.451Z,4.56
2017-12-30T08:38:50.687Z,4.57
2017-12-30T08:41:18.960Z,4.51
2017-12-30T08:43:48.065Z,4.68
2017-12-30T08:46:17.235Z,4.63
2017-12-30T08:48:45.527Z,4.53
2017-12-30T08:51:14.184Z,4.68
2017-12-30T08:53:42.570Z,4.73
2017-12-30T08:56:10.807Z,4.77
2017-12-30T08:58:39.085Z,4.74
2017-12-30T09:01:08.463Z,4.77
2017-12-30T09:03:36.735Z,4.78
2017-12-30T09:06:05.750Z,4.83
2017-12-30T09:08:34.454Z,4.93
2017-12-30T09:11:04.657Z,5.00
2017-12-30T09:13:33.136Z,5.00
2017-12-30T09:16:01.948Z,5.08
2017-12-30T09:18:31.627Z,5.02
2017-12-30T09:21:00.932Z,4.98
2017-12-30T09:23:29.244Z,5.15
2017-12-30T09:25:57.621Z,5.06
2017-12-30T09:28:26.524Z,5.11
2017-12-30T09:30:54.889Z,5.20
2017-12-30T09:33:24.895Z,6.22
2017-12-30T09:35:54.437Z,5.45
2017-12-30T09:38:23.880Z,5.40
2017-12-30T09:40:52.316Z,5.39
2017-12-30T09:43:21.177Z,5.37
2017-12-30T09:45:49.639Z,5.47
2017-12-30T09:48:19.509Z,5.54
2017-12-30T09:50:48.013Z,5.70
2017-12-30T09:53:16.767Z,5.74
2017-12-30T09:55:46.287Z,5.87
2017-12-30T09:58:15.689Z,5.92
2017-12-30T10:00:45.376Z,5.80
2017-12-30T10:03:13.895Z,5.74
2017-12-30T10:05:43.165Z,5.90
2017-12-30T10:08:12.159Z,5.90
2017-12-30T10:10:40.619Z,5.79
2017-12-30T10:13:10.648Z,5.78
2017-12-30T10:15:40.590Z,5.69
2017-12-30T10:18:11.162Z,5.71
2017-12-30T10:20:40.114Z,5.95
2017-12-30T10:23:08.543Z,5.98
2017-12-30T10:25:37.297Z,6.08
2017-12-30T10:28:06.278Z,6.08
2017-12-30T10:30:35.169Z,5.98
2017-12-30T10:33:04.150Z,5.97
2017-12-30T10:35:32.844Z,6.17
2017-12-30T10:38:01.624Z,6.33
2017-12-30T10:40:30.457Z,6.41
2017-12-30T10:42:59.332Z,6.58
2017-12-30T10:45:28.183Z,6.58
2017-12-30T10:47:56.801Z,6.47
2017-12-30T10:50:25.430Z,6.53
2017-12-30T10:52:54.153Z,6.83
2017-12-30T10:55:23.035Z,6.90
2017-12-30T10:57:52.694Z,6.99
2017-12-30T11:00:21.206Z,6.84
2017-12-30T11:02:49.781Z,6.98
2017-12-30T11:05:18.667Z,6.99
2017-12-30T11:07:47.807Z,7.10
2017-12-30T11:10:16.600Z,7.11
2017-12-30T11:12:45.180Z,7.05
2017-12-30T11:15:13.967Z,7.12
2017-12-30T11:17:43.957Z,7.21
2017-12-30T11:20:13.136Z,7.35
2017-12-30T11:22:42.028Z,7.53
2017-12-30T11:25:10.660Z,7.78
2017-12-30T11:27:39.144Z,7.75
2017-12-30T11:30:07.604Z,7.65
2017-12-30T11:32:36.259Z,7.72
2017-12-30T11:35:05.273Z,7.66
2017-12-30T11:37:34.279Z,7.81
2017-12-30T11:40:03.034Z,8.00
2017-12-30T11:42:31.918Z,7.96
2017-12-30T11:45:01.232Z,8.26
2017-12-30T11:47:30.543Z,7.99
2017-12-30T11:50:00.215Z,8.14
2017-12-30T11:52:28.925Z,8.24
2017-12-30T11:54:57.536Z,8.20
2017-12-30T11:57:26.368Z,8.24
2017-12-30T11:59:55.010Z,8.11
2017-12-30T12:02:23.573Z,8.24
2017-12-30T12:04:52.162Z,8.45
2017-12-30T12:07:21.881Z,8.73
2017-12-30T12:09:50.622Z,8.72
2017-12-30T12:12:19.303Z,8.80
2017-12-30T12:14:48.086Z,8.87
2017-12-30T12:17:16.836Z,9.03
2017-12-30T12:19:45.644Z,9.12
2017-12-30T12:22:14.124Z,9.18
2017-12-30T12:24:42.833Z,9.34
2017-12-30T12:27:11.685Z,9.35
2017-12-30T12:29:40.186Z,9.52
2017-12-30T12:32:09.105Z,9.58
2017-12-30T12:34:37.677Z,9.66
2017-12-30T12:37:06.667Z,9.68
2017-12-30T12:39:36.220Z,9.73
2017-12-30T12:42:04.879Z,9.78
2017-12-30T12:44:34.086Z,9.83
2017-12-30T12:47:03.738Z,9.84
2017-12-30T12:49:32.745Z,9.82
2017-12-30T12:52:01.810Z,9.87
2017-12-30T12:54:30.732Z,9.92
2017-12-30T12:57:00.968Z,9.93
2017-12-30T12:59:31.762Z,10.01
2017-12-30T13:02:00.043Z,10.23
2017-12-30T13:04:28.745Z,10.34
2017-12-30T13:06:57.114Z,10.35
2017-12-30T13:09:25.875Z,10.47
2017-12-30T13:11:54.272Z,10.52
2017-12-30T13:14:22.572Z,10.49
2017-12-30T13:16:51.720Z,10.63
2017-12-30T13:19:20.019Z,10.68
2017-12-30T13:21:48.305Z,10.68
2017-12-30T13:24:17.694Z,10.62
2017-12-30T13:26:47.222Z,10.71
2017-12-30T13:29:15.771Z,10.75
2017-12-30T13:31:44.160Z,10.73
2017-12-30T13:34:12.692Z,10.71
2017-12-30T13:36:42.113Z,10.83
2017-12-30T13:39:10.844Z,10.84
2017-12-30T13:41:39.319Z,10.86
2017-12-30T13:44:07.734Z,10.95
2017-12-30T13:46:36.294Z,10.85
2017-12-30T13:49:04.728Z,10.87
2017-12-30T13:51:33.312Z,10.76
2017-12-30T13:54:01.750Z,10.59
2017-12-30T13:56:31.021Z,10.67
2017-12-30T13:58:59.386Z,10.73
2017-12-30T14:01:27.788Z,10.81
2017-12-30T14:03:56.235Z,10.93
2017-12-30T14:06:25.461Z,10.93
2017-12-30T14:08:54.942Z,10.92
2017-12-30T14:11:23.590Z,11.01
2017-12-30T14:13:52.148Z,10.89
2017-12-30T14:16:20.713Z,10.89
2017-12-30T14:18:49.310Z,10.78
2017-12-30T14:21:17.896Z,10.72
2017-12-30T14:23:46.549Z,10.66
2017-12-30T14:26:15.300Z,10.66
2017-12-30T14:28:43.781Z,10.57
2017-12-30T14:31:12.549Z,10.58
2017-12-30T14:33:41.867Z,10.65
2017-12-30T14:36:11.169Z,10.70
2017-12-30T14:38:39.931Z,10.92
2017-12-30T14:41:08.328Z,10.89
2017-12-30T14:43:37.213Z,10.94
2017-12-30T14:46:06.002Z,11.06
2017-12-30T14:48:34.575Z,10.95
2017-12-30T14:51:03.768Z,10.96
2017-12-30T14:53:32.201Z,10.91
2017-12-30T14:58:35.056Z,10.98
2017-12-30T15:01:03.331Z,11.13
2017-12-30T15:03:31.600Z,11.34
2017-12-30T15:06:00.610Z,11.13
2017-12-30T15:08:29.186Z,11.18
2017-12-30T15:10:58.645Z,11.16
2017-12-30T15:13:27.936Z,11.37
2017-12-30T15:15:56.259Z,11.45
2017-12-30T15:18:25.261Z,11.51
2017-12-30T15:20:53.851Z,11.61
2017-12-30T15:23:23.324Z,11.70
2017-12-30T15:25:51.695Z,11.59
2017-12-30T15:28:20.438Z,11.74
2017-12-30T15:30:49.045Z,11.76
2017-12-30T15:33:17.405Z,11.81
2017-12-30T15:35:47.890Z,11.71
2017-12-30T15:38:16.793Z,11.78
2017-12-30T15:40:45.296Z,11.87
2017-12-30T15:43:13.690Z,11.85
2017-12-30T15:45:42.850Z,11.83
2017-12-30T15:48:12.065Z,11.82
2017-12-30T15:50:41.174Z,11.83
2017-12-30T15:53:10.221Z,11.79
2017-12-30T15:55:38.661Z,11.73
2017-12-30T15:58:07.088Z,11.88
2017-12-30T16:00:36.641Z,11.95
2017-12-30T16:03:04.980Z,11.77
2017-12-30T16:05:34.456Z,11.62
2017-12-30T16:08:02.767Z,11.57
2017-12-30T16:10:31.434Z,11.61
2017-12-30T16:12:59.876Z,11.53
2017-12-30T16:15:28.661Z,11.55
2017-12-30T16:17:57.516Z,11.69
2017-12-30T16:20:27.295Z,11.66
2017-12-30T16:22:55.624Z,11.66
2017-12-30T16:25:23.950Z,11.75
2017-12-30T16:27:52.993Z,11.67
2017-12-30T16:30:22.438Z,11.63
2017-12-30T16:32:50.724Z,11.79
2017-12-30T16:35:19.000Z,11.80
2017-12-30T16:37:48.475Z,11.84
2017-12-30T16:40:16.733Z,11.90
2017-12-30T16:42:45.029Z,12.00
2017-12-30T16:45:13.371Z,12.04
2017-12-30T16:47:42.416Z,12.06
2017-12-30T16:50:10.696Z,12.16
2017-12-30T16:52:38.960Z,12.25
2017-12-30T16:55:08.100Z,12.30
2017-12-30T16:57:36.399Z,12.42
2017-12-30T17:00:04.735Z,12.41
2017-12-30T17:02:33.040Z,12.23
2017-12-30T17:05:02.095Z,12.38
2017-12-30T17:07:30.357Z,12.43
2017-12-30T17:09:59.416Z,12.53
2017-12-30T17:12:27.762Z,12.54
2017-12-30T17:14:56.057Z,12.58
2017-12-30T17:17:24.321Z,12.57
2017-12-30T17:19:53.347Z,12.54
2017-12-30T17:22:21.611Z,12.66
2017-12-30T17:24:50.664Z,12.72
2017-12-30T17:27:18.932Z,12.82
2017-12-30T17:29:47.274Z,12.86
2017-12-30T17:32:15.553Z,12.70
2017-12-30T17:34:43.897Z,12.74
2017-12-30T17:37:13.929Z,12.71
2017-12-30T17:39:42.207Z,12.60
2017-12-30T17:42:10.557Z,12.71
2017-12-30T17:44:38.849Z,12.68
2017-12-30T17:47:07.176Z,12.74
2017-12-30T17:49:36.215Z,12.66
2017-12-30T17:52:05.643Z,12.55
2017-12-30T17:54:33.992Z,12.54
2017-12-30T17:57:03.067Z,12.46
2017-12-30T17:59:32.123Z,12.43
2017-12-30T18:02:00.426Z,12.35
2017-12-30T18:04:28.725Z,12.39
2017-12-30T18:06:57.047Z,12.26
2017-12-30T18:09:25.342Z,12.15
2017-12-30T18:11:53.653Z,12.27
2017-12-30T18:14:22.718Z,12.14
2017-12-30T18:16:51.100Z,12.08
2017-12-30T18:19:19.400Z,12.03
2017-12-30T18:21:47.769Z,12.04
2017-12-30T18:24:16.096Z,11.96
2017-12-30T18:26:44.435Z,11.89
2017-12-30T18:29:12.705Z,11.87
2017-12-30T18:31:41.754Z,11.96
2017-12-30T18:34:10.063Z,11.78
2017-12-30T18:36:38.391Z,11.74
2017-12-30T18:39:07.451Z,11.65
2017-12-30T18:41:35.780Z,11.75
2017-12-30T18:44:04.086Z,11.72
2017-12-30T18:46:33.179Z,11.68
2017-12-30T18:49:01.506Z,11.51
2017-12-30T18:51:29.893Z,11.44
2017-12-30T18:53:58.224Z,11.42
2017-12-30T18:56:26.565Z,11.46
2017-12-30T18:58:54.878Z,11.42
2017-12-30T19:01:23.255Z,11.40
2017-12-30T19:03:51.570Z,11.29
2017-12-30T19:06:19.894Z,11.35
2017-12-30T19:08:48.156Z,11.39
2017-12-30T19:11:16.478Z,11.43
2017-12-30T19:13:44.788Z,11.35
2017-12-30T19:16:13.906Z,11.35
2017-12-30T19:18:43.019Z,11.41
2017-12-30T19:21:12.115Z,11.35
2017-12-30T19:23:40.454Z,11.31
2017-12-30T19:26:08.760Z,11.37
2017-12-30T19:28:37.076Z,11.33
2017-12-30T19:31:06.166Z,11.42
2017-12-30T19:33:34.489Z,11.41
2017-12-30T19:36:02.815Z,11.36
2017-12-30T19:38:31.152Z,11.35
2017-12-30T19:40:59.464Z,11.26
2017-12-30T19:43:27.792Z,11.17
2017-12-30T19:45:56.096Z,11.17
2017-12-30T19:48:24.483Z,11.14
2017-12-30T19:50:52.807Z,11.11
2017-12-30T19:53:21.131Z,11.07
2017-12-30T19:55:50.223Z,11.11
2017-12-30T19:58:18.548Z,11.07
2017-12-30T20:00:46.870Z,11.12
2017-12-30T20:03:15.199Z,11.11
2017-12-30T20:05:44.267Z,11.08
2017-12-30T20:08:12.604Z,11.17
2017-12-30T20:10:40.940Z,11.18
2017-12-30T20:13:09.264Z,11.20
2017-12-30T20:15:37.571Z,11.12
2017-12-30T20:18:06.674Z,11.18
2017-12-30T20:20:35.762Z,11.12
2017-12-30T20:23:04.103Z,11.08
2017-12-30T20:25:32.409Z,11.04
2017-12-30T20:28:00.733Z,11.11
2017-12-30T20:30:29.037Z,11.11
2017-12-30T20:32:58.137Z,11.02
2017-12-30T20:35:26.434Z,10.95
2017-12-30T20:37:54.765Z,11.01
2017-12-30T20:40:23.140Z,11.06
2017-12-30T20:42:51.453Z,11.18
2017-12-30T20:45:19.768Z,11.08
2017-12-30T20:47:48.086Z,11.24
2017-12-30T20:50:16.491Z,11.20
2017-12-30T20:52:45.562Z,11.17
2017-12-30T20:55:13.907Z,11.20
2017-12-30T20:57:42.226Z,11.08
2017-12-30T21:00:10.551Z,11.17
2017-12-30T21:02:39.647Z,11.11
2017-12-30T21:05:09.470Z,11.17
2017-12-30T21:07:37.851Z,11.17
2017-12-30T21:10:06.948Z,11.23
2017-12-30T21:12:35.262Z,11.26
2017-12-30T21:15:03.599Z,11.24
2017-12-30T21:17:31.920Z,11.20
2017-12-30T21:20:00.253Z,11.26
2017-12-30T21:22:29.341Z,11.17
2017-12-30T21:24:57.656Z,11.17
2017-12-30T21:27:26.727Z,11.28
2017-12-30T21:29:55.083Z,11.23
2017-12-30T21:32:23.410Z,11.22
2017-12-30T21:34:51.731Z,11.22
2017-12-30T21:37:21.009Z,11.27
2017-12-30T21:39:49.335Z,11.45
2017-12-30T21:42:18.455Z,11.39
2017-12-30T21:44:49.491Z,11.36
2017-12-30T21:47:18.591Z,11.42
2017-12-30T21:49:47.687Z,11.40
2017-12-30T21:52:16.006Z,11.48
2017-12-30T21:54:45.319Z,11.52
2017-12-30T21:57:13.628Z,11.46
2017-12-30T21:59:42.742Z,11.45
2017-12-30T22:02:11.089Z,11.53
2017-12-30T22:04:39.412Z,11.65
2017-12-30T22:07:08.478Z,11.70
2017-12-30T22:09:36.812Z,11.71
2017-12-30T22:12:05.884Z,11.68
2017-12-30T22:14:34.234Z,11.72
2017-12-30T22:17:02.576Z,11.62
2017-12-30T22:19:30.884Z,11.65
2017-12-30T22:21:59.962Z,11.76
2017-12-30T22:24:28.261Z,11.73
2017-12-30T22:26:56.578Z,11.65
2017-12-30T22:29:25.626Z,11.71
2017-12-30T22:31:53.971Z,11.77
2017-12-30T22:34:23.073Z,11.74
2017-12-30T22:36:51.405Z,11.83
2017-12-30T22:39:19.752Z,11.84
2017-12-30T22:41:48.075Z,11.88
2017-12-30T22:44:16.386Z,11.90
2017-12-30T22:46:44.722Z,11.90
2017-12-30T22:49:14.022Z,11.97
2017-12-30T22:51:42.373Z,11.97
2017-12-30T22:54:10.688Z,12.01
2017-12-30T22:56:39.017Z,12.14
2017-12-30T22:59:08.679Z,12.11
2017-12-30T23:01:37.010Z,12.18
2017-12-30T23:04:06.318Z,12.16
2017-12-30T23:06:34.656Z,12.25
2017-12-30T23:09:02.961Z,12.21
2017-12-30T23:11:31.276Z,12.23
2017-12-30T23:13:59.583Z,12.27
2017-12-30T23:16:27.928Z,12.22
2017-12-30T23:18:56.243Z,12.13
2017-12-30T23:21:24.572Z,12.18
2017-12-30T23:23:53.646Z,12.17
2017-12-30T23:26:21.980Z,12.10
2017-12-30T23:28:51.073Z,12.08
2017-12-30T23:31:19.389Z,12.03
2017-12-30T23:33:47.698Z,12.10
2017-12-30T23:36:16.020Z,12.08
2017-12-30T23:38:44.334Z,12.15
2017-12-30T23:41:12.661Z,12.13
2017-12-30T23:43:41.028Z,12.10
2017-12-30T23:46:10.108Z,12.06
2017-12-30T23:48:38.438Z,12.05
2017-12-30T23:51:06.758Z,12.15
2017-12-30T23:53:35.088Z,12.08
2017-12-30T23:56:03.412Z,12.16
2017-12-30T23:58:31.754Z,12.20
